Time;durP1;ratioP1;P1;durP2;ratioP2;P2;SDS_P1;SDS_P2;PMS_P1;PMS_P2;Temp;Humidity;BMP_temperature;BMP_pressure;BME280_temperature;BME280_humidity;BME280_pressure;Samples;Min_cycle;Max_cycle;Signal;HPM_P1;HPM_P2
2023/08/26 00:00:33;;;;;;;7.13;6.20;;;27.60;69.10;;;;;;5073990;28;20024;-74
2023/08/26 00:02:58;;;;;;;9.73;6.18;;;27.60;68.90;;;;;;5072978;28;20035;-74
2023/08/26 00:05:24;;;;;;;11.38;6.05;;;27.60;68.90;;;;;;5073821;28;20028;-74
2023/08/26 00:07:50;;;;;;;7.30;5.60;;;27.60;69.00;;;;;;5074016;28;20468;-74
2023/08/26 00:10:16;;;;;;;10.00;6.05;;;27.60;68.70;;;;;;5073775;28;20029;-74
2023/08/26 00:12:41;;;;;;;9.73;6.18;;;27.60;68.30;;;;;;5073946;28;20028;-73
2023/08/26 00:15:07;;;;;;;8.32;5.50;;;27.60;68.60;;;;;;5074008;28;20074;-73
2023/08/26 00:17:33;;;;;;;17.00;6.03;;;27.60;68.90;;;;;;5073797;28;20033;-77
2023/08/26 00:19:59;;;;;;;7.95;5.68;;;27.60;68.90;;;;;;5072392;28;20047;-74
2023/08/26 00:22:25;;;;;;;13.70;5.97;;;27.50;68.90;;;;;;5073918;28;20032;-74
2023/08/26 00:24:51;;;;;;;9.68;5.53;;;27.50;68.80;;;;;;5073755;28;20103;-74
2023/08/26 00:27:17;;;;;;;9.13;6.00;;;27.50;68.90;;;;;;5073748;28;20021;-74
2023/08/26 00:29:43;;;;;;;12.05;6.05;;;27.50;69.00;;;;;;5073567;28;20029;-74
2023/08/26 00:32:08;;;;;;;7.70;5.70;;;27.50;69.10;;;;;;5073353;28;20028;-73
2023/08/26 00:34:34;;;;;;;10.65;6.88;;;27.50;69.30;;;;;;5073428;28;20032;-73
2023/08/26 00:37:00;;;;;;;8.50;5.75;;;27.40;69.50;;;;;;5073540;28;20024;-74
2023/08/26 00:39:26;;;;;;;12.27;6.53;;;27.50;69.60;;;;;;5073182;28;20097;-74
2023/08/26 00:41:52;;;;;;;9.95;6.10;;;27.50;69.50;;;;;;5072143;28;20020;-74
2023/08/26 00:44:18;;;;;;;12.23;6.15;;;27.50;69.50;;;;;;5071792;28;20029;-74
2023/08/26 00:46:44;;;;;;;11.70;6.55;;;27.50;69.60;;;;;;5072130;28;20512;-74
2023/08/26 00:49:09;;;;;;;11.68;6.15;;;27.50;69.80;;;;;;5073317;28;20033;-74
2023/08/26 00:51:36;;;;;;;7.13;5.95;;;27.40;69.60;;;;;;5073070;28;20122;-73
2023/08/26 00:54:04;;;;;;;6.63;5.50;;;27.50;69.90;;;;;;5073138;28;20024;-74
2023/08/26 00:56:29;;;;;;;7.85;5.93;;;27.50;69.80;;;;;;5071912;28;20412;-74
2023/08/26 00:58:55;;;;;;;9.15;6.03;;;27.50;69.60;;;;;;5070932;28;20043;-74
2023/08/26 01:01:22;;;;;;;10.07;6.38;;;27.50;69.40;;;;;;5070251;28;20382;-74
2023/08/26 01:03:49;;;;;;;12.18;6.95;;;27.40;69.60;;;;;;5070109;28;20032;-74
2023/08/26 01:06:14;;;;;;;10.32;6.70;;;27.40;70.00;;;;;;5072233;28;20074;-74
2023/08/26 01:08:40;;;;;;;10.68;6.60;;;27.30;70.40;;;;;;5072690;28;20046;-78
2023/08/26 01:11:15;;;;;;;9.32;6.47;;;27.20;70.60;;;;;;5072797;28;20028;-74
2023/08/26 01:14:02;;;;;;;13.50;7.10;;;27.20;71.00;;;;;;5072332;28;20028;-75
2023/08/26 01:16:31;;;;;;;8.10;6.70;;;27.20;71.10;;;;;;5072672;28;20051;-74
2023/08/26 01:18:56;;;;;;;9.55;6.28;;;27.10;71.00;;;;;;5072607;28;20481;-73
2023/08/26 01:21:31;;;;;;;10.73;7.22;;;27.20;71.10;;;;;;5072461;28;20066;-73
2023/08/26 01:23:57;;;;;;;11.07;6.20;;;27.10;71.00;;;;;;5072602;28;20021;-74
2023/08/26 01:26:22;;;;;;;14.93;7.63;;;27.10;71.10;;;;;;5072510;28;20098;-74
2023/08/26 01:28:48;;;;;;;10.25;7.10;;;27.10;71.20;;;;;;5072244;28;20419;-74
2023/08/26 01:31:15;;;;;;;16.08;7.70;;;27.00;71.40;;;;;;5072523;28;20108;-74
2023/08/26 01:33:55;;;;;;;13.38;6.97;;;27.00;71.40;;;;;;5072515;28;20095;-74
2023/08/26 01:36:25;;;;;;;10.85;7.45;;;26.90;71.50;;;;;;5072203;28;20020;-74
2023/08/26 01:38:52;;;;;;;18.42;7.45;;;26.90;71.70;;;;;;5072003;28;20427;-75
2023/08/26 01:41:20;;;;;;;12.32;7.25;;;26.80;71.80;;;;;;5072394;28;20046;-73
2023/08/26 01:43:50;;;;;;;12.88;7.78;;;26.70;72.00;;;;;;5071285;28;20012;-73
2023/08/26 01:46:16;;;;;;;8.90;7.50;;;26.70;72.20;;;;;;5072161;28;20028;-73
2023/08/26 01:48:42;;;;;;;11.27;7.80;;;26.70;72.10;;;;;;5072164;28;20032;-74
2023/08/26 01:51:08;;;;;;;16.08;7.38;;;26.70;72.20;;;;;;5072031;28;20029;-73
2023/08/26 01:53:34;;;;;;;11.07;7.15;;;26.60;72.30;;;;;;5072178;28;20021;-74
2023/08/26 01:56:00;;;;;;;11.10;7.45;;;26.60;72.40;;;;;;5072331;28;20020;-74
2023/08/26 01:58:26;;;;;;;10.25;7.22;;;26.50;72.90;;;;;;5071939;28;20043;-73
2023/08/26 02:00:52;;;;;;;10.65;7.38;;;26.50;73.00;;;;;;5072320;28;20035;-74
2023/08/26 02:03:17;;;;;;;12.27;7.32;;;26.50;73.00;;;;;;5071032;28;20025;-74
2023/08/26 02:05:43;;;;;;;9.02;7.22;;;26.50;73.00;;;;;;5071723;28;20025;-74
2023/08/26 02:08:09;;;;;;;10.57;8.07;;;26.40;73.00;;;;;;5071595;28;20095;-75
2023/08/26 02:10:35;;;;;;;12.30;7.10;;;26.40;73.10;;;;;;5070614;28;20035;-74
2023/08/26 02:13:00;;;;;;;11.35;7.43;;;26.40;73.50;;;;;;5071857;28;20013;-74
2023/08/26 02:15:26;;;;;;;12.00;7.47;;;26.30;73.70;;;;;;5071802;28;20502;-74
2023/08/26 02:17:52;;;;;;;8.70;7.00;;;26.40;73.80;;;;;;5071876;28;20052;-74
2023/08/26 02:20:18;;;;;;;13.02;7.05;;;26.30;73.60;;;;;;5070656;28;20040;-74
2023/08/26 02:22:44;;;;;;;8.55;6.78;;;26.40;73.70;;;;;;5071967;28;20025;-73
2023/08/26 02:25:09;;;;;;;7.70;6.90;;;26.30;73.60;;;;;;5071539;28;20039;-75
2023/08/26 02:27:35;;;;;;;10.35;6.65;;;26.30;73.80;;;;;;5076018;28;20091;-73
2023/08/26 02:30:02;;;;;;;11.15;7.68;;;26.30;73.70;;;;;;5075464;28;20026;-73
2023/08/26 02:32:28;;;;;;;11.30;7.60;;;26.30;73.60;;;;;;5075485;28;20076;-73
2023/08/26 02:34:54;;;;;;;12.18;7.82;;;26.30;73.40;;;;;;5076138;28;20020;-74
2023/08/26 02:37:21;;;;;;;9.25;6.72;;;26.20;73.20;;;;;;5075418;28;20059;-73
2023/08/26 02:39:47;;;;;;;11.68;7.13;;;26.20;73.20;;;;;;5075374;28;20051;-74
2023/08/26 02:42:12;;;;;;;10.82;7.57;;;26.20;73.20;;;;;;5075579;28;20047;-73
2023/08/26 02:44:38;;;;;;;10.10;8.25;;;26.20;72.80;;;;;;5075725;28;20100;-74
2023/08/26 02:47:04;;;;;;;8.15;7.35;;;26.20;72.30;;;;;;5075574;28;20028;-74
2023/08/26 02:49:30;;;;;;;8.98;7.38;;;26.20;72.00;;;;;;5075354;28;20027;-74
2023/08/26 02:51:56;;;;;;;11.15;8.10;;;26.20;71.40;;;;;;5075195;28;20464;-74
2023/08/26 02:54:21;;;;;;;8.65;7.53;;;26.20;71.10;;;;;;5075382;28;20043;-73
2023/08/26 02:56:47;;;;;;;11.48;8.35;;;26.20;70.90;;;;;;5074009;28;20095;-74
2023/08/26 02:59:13;;;;;;;13.70;8.18;;;26.30;70.70;;;;;;5075002;28;20021;-73
2023/08/26 03:01:39;;;;;;;11.52;8.20;;;26.20;70.70;;;;;;5075111;28;20078;-74
2023/08/26 03:04:05;;;;;;;10.77;7.25;;;26.20;70.30;;;;;;5075177;28;20031;-74
2023/08/26 03:06:30;;;;;;;10.20;8.77;;;26.20;70.20;;;;;;5074785;28;20365;-74
2023/08/26 03:08:56;;;;;;;12.45;8.18;;;26.30;69.90;;;;;;5075270;28;20016;-74
2023/08/26 03:11:22;;;;;;;11.25;7.65;;;26.30;69.90;;;;;;5073971;28;20028;-74
2023/08/26 03:13:49;;;;;;;10.15;8.50;;;26.30;70.30;;;;;;5074829;28;20032;-73
2023/08/26 03:16:15;;;;;;;11.75;7.90;;;26.20;70.70;;;;;;5074915;28;20020;-73
2023/08/26 03:18:41;;;;;;;13.90;7.50;;;26.30;70.90;;;;;;5074707;28;20035;-75
2023/08/26 03:21:08;;;;;;;11.77;7.88;;;26.20;71.50;;;;;;5074511;28;20074;-74
2023/08/26 03:23:34;;;;;;;10.82;7.57;;;26.20;72.00;;;;;;5074532;28;20021;-74
2023/08/26 03:26:01;;;;;;;11.13;7.88;;;26.10;71.90;;;;;;5073385;28;20023;-74
2023/08/26 03:28:28;;;;;;;11.88;7.00;;;26.10;72.00;;;;;;5075190;28;20028;-74
2023/08/26 03:30:53;;;;;;;15.27;7.35;;;26.10;71.90;;;;;;5074967;28;20017;-73
2023/08/26 03:33:19;;;;;;;10.55;7.47;;;26.10;71.80;;;;;;5075069;28;20036;-74
2023/08/26 03:35:45;;;;;;;8.82;7.03;;;26.10;71.90;;;;;;5074479;28;20024;-74
2023/08/26 03:38:10;;;;;;;12.48;7.15;;;26.10;72.10;;;;;;5074575;28;20129;-73
2023/08/26 03:40:40;;;;;;;10.30;7.70;;;26.10;72.10;;;;;;5074776;28;20048;-73
2023/08/26 03:43:07;;;;;;;14.13;7.82;;;26.10;72.00;;;;;;5075167;28;20035;-73
2023/08/26 03:45:33;;;;;;;13.55;7.47;;;26.10;71.90;;;;;;5064048;28;20029;-73
2023/08/26 03:47:58;;;;;;;11.48;7.25;;;26.10;71.80;;;;;;5054527;28;20457;-73
2023/08/26 03:50:24;;;;;;;14.00;7.25;;;26.10;71.80;;;;;;5054606;28;20033;-74
2023/08/26 03:52:50;;;;;;;11.93;7.53;;;26.10;71.50;;;;;;5054414;28;20021;-73
2023/08/26 03:55:16;;;;;;;9.50;7.18;;;26.10;71.30;;;;;;5054573;28;20041;-73
2023/08/26 03:57:41;;;;;;;9.30;7.93;;;26.10;71.20;;;;;;5052967;28;20504;-75
2023/08/26 04:00:07;;;;;;;8.30;6.90;;;26.10;71.20;;;;;;5054469;28;20033;-74
2023/08/26 04:02:33;;;;;;;10.68;7.38;;;26.10;71.20;;;;;;5054684;28;20108;-73
2023/08/26 04:04:59;;;;;;;10.82;7.88;;;26.20;71.50;;;;;;5052976;28;20115;-74
2023/08/26 04:07:25;;;;;;;11.18;8.15;;;26.20;71.20;;;;;;5054584;28;20075;-73
2023/08/26 04:09:50;;;;;;;10.10;8.15;;;26.10;71.10;;;;;;5052834;28;20031;-73
2023/08/26 04:12:16;;;;;;;12.88;8.70;;;26.10;71.50;;;;;;5054292;28;20052;-73
2023/08/26 04:14:42;;;;;;;11.13;7.90;;;26.10;71.80;;;;;;5054372;28;20013;-73
2023/08/26 04:17:08;;;;;;;10.23;8.35;;;26.00;72.10;;;;;;5054451;28;20100;-73
2023/08/26 04:19:33;;;;;;;15.77;8.32;;;25.90;72.40;;;;;;5053895;28;20083;-73
2023/08/26 04:22:03;;;;;;;10.77;8.15;;;25.90;72.60;;;;;;5064014;28;20047;-73
2023/08/26 04:24:31;;;;;;;13.02;8.73;;;25.80;72.80;;;;;;5074014;28;20036;-73
2023/08/26 04:26:57;;;;;;;23.27;9.82;;;25.80;73.10;;;;;;5073701;28;20035;-73
2023/08/26 04:29:22;;;;;;;41.25;12.52;;;25.80;74.10;;;;;;5073533;28;20024;-74
2023/08/26 04:31:48;;;;;;;31.15;10.75;;;25.70;75.20;;;;;;5073437;28;20025;-73
2023/08/26 04:34:14;;;;;;;20.73;10.50;;;25.70;76.30;;;;;;5071599;28;20476;-73
2023/08/26 04:36:40;;;;;;;15.00;9.23;;;25.70;76.50;;;;;;5071989;28;20021;-72
2023/08/26 04:39:10;;;;;;;18.33;9.70;;;25.70;76.40;;;;;;5071766;28;20087;-73
2023/08/26 04:41:39;;;;;;;12.07;8.13;;;25.60;76.10;;;;;;5072118;28;20125;-74
2023/08/26 04:44:07;;;;;;;16.60;9.45;;;25.60;75.70;;;;;;5071981;28;20103;-73
2023/08/26 04:46:33;;;;;;;17.98;9.80;;;25.60;75.10;;;;;;5070528;28;20074;-73
2023/08/26 04:48:59;;;;;;;24.67;10.38;;;25.60;76.40;;;;;;5070197;28;20021;-74
2023/08/26 04:51:25;;;;;;;15.90;8.82;;;25.60;76.50;;;;;;5071988;28;20025;-73
2023/08/26 04:53:50;;;;;;;11.75;8.80;;;25.60;76.30;;;;;;5072025;28;20021;-74
2023/08/26 04:56:16;;;;;;;14.88;9.50;;;25.50;75.90;;;;;;5071932;28;20021;-74
2023/08/26 04:58:42;;;;;;;22.25;10.15;;;25.50;76.40;;;;;;5071897;28;20025;-74
2023/08/26 05:01:08;;;;;;;12.48;9.50;;;25.50;76.80;;;;;;5071184;28;20082;-75
2023/08/26 05:03:34;;;;;;;10.20;8.88;;;25.50;77.20;;;;;;5055603;28;20028;-74
2023/08/26 05:06:00;;;;;;;17.23;10.38;;;25.50;77.10;;;;;;5073465;28;20538;-73
2023/08/26 05:08:25;;;;;;;13.82;9.52;;;25.50;77.60;;;;;;5073518;28;20039;-74
2023/08/26 05:10:51;;;;;;;12.88;9.00;;;25.50;77.70;;;;;;5073627;28;20040;-74
2023/08/26 05:13:17;;;;;;;13.07;9.40;;;25.40;77.30;;;;;;5072240;28;20035;-75
2023/08/26 05:15:43;;;;;;;10.40;8.32;;;25.40;77.10;;;;;;5073088;28;20027;-74
2023/08/26 05:18:08;;;;;;;10.90;8.27;;;25.40;76.70;;;;;;5073281;28;20036;-74
2023/08/26 05:20:34;;;;;;;17.90;8.80;;;25.40;76.80;;;;;;5073357;28;20431;-74
2023/08/26 05:23:00;;;;;;;9.02;7.43;;;25.50;77.00;;;;;;5073137;28;20027;-73
2023/08/26 05:25:25;;;;;;;8.80;7.88;;;25.50;76.70;;;;;;5073445;28;20107;-75
2023/08/26 05:27:52;;;;;;;11.95;7.80;;;25.50;76.50;;;;;;5073336;28;20063;-76
2023/08/26 05:30:18;;;;;;;13.75;8.63;;;25.50;76.50;;;;;;5073307;28;20023;-75
2023/08/26 05:32:43;;;;;;;12.38;8.32;;;25.60;76.50;;;;;;5073118;28;20028;-75
2023/08/26 05:35:09;;;;;;;8.32;7.43;;;25.60;76.10;;;;;;5073286;28;20059;-74
2023/08/26 05:37:35;;;;;;;9.05;7.68;;;25.60;75.70;;;;;;5073233;28;20025;-74
2023/08/26 05:40:01;;;;;;;13.13;8.60;;;25.60;75.10;;;;;;5072310;28;20109;-74
2023/08/26 05:42:27;;;;;;;13.20;7.72;;;25.60;74.80;;;;;;5072945;28;20024;-76
2023/08/26 05:44:52;;;;;;;15.23;7.60;;;25.70;74.70;;;;;;5072541;28;20029;-75
2023/08/26 05:47:19;;;;;;;9.70;7.53;;;25.70;74.80;;;;;;5072822;28;20058;-74
2023/08/26 05:49:44;;;;;;;11.23;7.78;;;25.80;74.60;;;;;;5071774;28;20067;-74
2023/08/26 05:52:10;;;;;;;9.25;7.20;;;25.80;74.60;;;;;;5072113;28;20052;-75
2023/08/26 05:54:36;;;;;;;10.88;7.63;;;25.80;74.90;;;;;;5072495;28;20056;-74
2023/08/26 05:57:02;;;;;;;13.57;7.60;;;25.90;75.10;;;;;;5072717;28;20029;-74
2023/08/26 05:59:28;;;;;;;12.85;7.97;;;25.90;74.70;;;;;;5072390;28;20086;-75
2023/08/26 06:01:54;;;;;;;8.00;6.93;;;25.90;74.10;;;;;;5076488;28;20029;-75
2023/08/26 06:04:20;;;;;;;8.65;7.10;;;26.00;73.70;;;;;;5076982;28;20021;-74
2023/08/26 06:06:45;;;;;;;13.23;6.60;;;26.00;73.30;;;;;;5075921;28;20027;-75
2023/08/26 06:09:11;;;;;;;10.07;6.72;;;26.00;73.10;;;;;;5074639;28;20644;-75
2023/08/26 06:11:38;;;;;;;9.23;6.70;;;26.00;72.80;;;;;;5074865;28;20025;-75
2023/08/26 06:14:04;;;;;;;11.40;7.07;;;26.00;72.60;;;;;;5074112;28;20024;-75
2023/08/26 06:16:30;;;;;;;11.75;6.85;;;26.10;73.40;;;;;;5076429;28;20050;-76
2023/08/26 06:18:56;;;;;;;12.60;7.25;;;26.00;72.80;;;;;;5076409;28;20062;-75
2023/08/26 06:21:21;;;;;;;11.20;6.72;;;26.10;73.20;;;;;;5076628;28;20025;-74
2023/08/26 06:23:48;;;;;;;13.50;7.05;;;26.10;73.30;;;;;;5076719;28;20035;-74
2023/08/26 06:26:14;;;;;;;13.10;7.18;;;26.20;72.90;;;;;;5075193;28;20029;-74
2023/08/26 06:28:39;;;;;;;9.88;7.38;;;26.20;72.70;;;;;;5076514;28;20146;-75
2023/08/26 06:31:05;;;;;;;9.73;7.05;;;26.30;72.20;;;;;;5075863;28;20012;-77
2023/08/26 06:33:31;;;;;;;12.20;7.40;;;26.30;72.00;;;;;;5076236;28;20380;-74
2023/08/26 06:35:56;;;;;;;19.27;7.82;;;26.30;72.20;;;;;;5076049;28;20016;-74
2023/08/26 06:38:22;;;;;;;13.98;9.00;;;26.40;72.30;;;;;;5076093;28;20029;-74
2023/08/26 06:40:57;;;;;;;13.60;8.80;;;26.40;72.80;;;;;;5075642;28;20024;-74
2023/08/26 06:43:24;;;;;;;13.63;8.20;;;26.40;73.70;;;;;;5074753;28;20036;-74
2023/08/26 06:45:50;;;;;;;13.60;7.55;;;26.40;74.10;;;;;;5075900;28;20034;-74
2023/08/26 06:48:16;;;;;;;10.05;7.22;;;26.50;74.10;;;;;;5075748;28;20027;-74
2023/08/26 06:50:46;;;;;;;10.43;7.05;;;26.50;73.60;;;;;;5076131;28;20097;-73
2023/08/26 06:53:12;;;;;;;11.38;6.97;;;26.60;72.70;;;;;;5075990;28;20028;-74
2023/08/26 06:55:38;;;;;;;10.75;6.85;;;26.60;71.70;;;;;;5075774;28;20366;-74
2023/08/26 06:58:04;;;;;;;7.68;6.88;;;26.60;71.70;;;;;;5076129;28;20461;-74
2023/08/26 07:00:29;;;;;;;11.27;6.88;;;26.70;71.70;;;;;;5076102;28;20036;-74
2023/08/26 07:02:55;;;;;;;7.32;6.63;;;26.70;71.40;;;;;;5075797;28;20039;-73
2023/08/26 07:05:22;;;;;;;9.68;6.80;;;26.80;71.20;;;;;;5075684;28;20031;-73
2023/08/26 07:07:47;;;;;;;11.85;6.90;;;26.80;71.00;;;;;;5075715;28;20032;-74
2023/08/26 07:10:13;;;;;;;9.15;6.45;;;26.80;70.60;;;;;;5075273;28;20389;-74
2023/08/26 07:12:39;;;;;;;11.63;7.07;;;26.90;70.40;;;;;;5075141;28;20099;-74
2023/08/26 07:15:05;;;;;;;10.63;6.85;;;26.90;70.40;;;;;;5075348;28;20062;-74
2023/08/26 07:17:31;;;;;;;8.50;6.93;;;26.90;70.50;;;;;;5075223;28;20473;-73
2023/08/26 07:19:57;;;;;;;7.78;6.18;;;27.00;70.60;;;;;;5075237;28;20082;-74
2023/08/26 07:22:22;;;;;;;12.20;7.00;;;27.00;70.70;;;;;;5075358;28;20028;-74
2023/08/26 07:24:48;;;;;;;9.52;6.60;;;27.10;70.50;;;;;;5075345;28;20070;-74
2023/08/26 07:27:14;;;;;;;8.07;6.25;;;27.10;71.20;;;;;;5075436;28;20054;-74
2023/08/26 07:29:39;;;;;;;9.32;6.45;;;27.20;71.50;;;;;;5075404;28;20035;-74
2023/08/26 07:32:06;;;;;;;7.93;6.50;;;27.20;71.10;;;;;;5075286;28;20045;-74
2023/08/26 07:34:31;;;;;;;9.95;7.32;;;27.30;70.70;;;;;;5075381;28;20103;-74
2023/08/26 07:36:58;;;;;;;8.57;6.32;;;27.30;70.90;;;;;;5074692;28;20102;-74
2023/08/26 07:39:24;;;;;;;13.00;6.60;;;27.40;71.10;;;;;;5074760;28;20040;-74
2023/08/26 07:41:50;;;;;;;11.27;6.30;;;27.40;71.00;;;;;;5075148;28;20013;-74
2023/08/26 07:44:16;;;;;;;8.20;6.15;;;27.40;70.70;;;;;;5074115;28;20033;-73
2023/08/26 07:46:41;;;;;;;7.75;6.38;;;27.50;70.10;;;;;;5074105;28;20013;-74
2023/08/26 07:49:07;;;;;;;9.43;6.28;;;27.60;69.90;;;;;;5074131;28;20095;-74
2023/08/26 07:51:33;;;;;;;7.00;6.05;;;27.60;69.70;;;;;;5074444;28;20027;-74
2023/08/26 07:53:59;;;;;;;8.77;6.78;;;27.70;69.70;;;;;;5072595;28;20021;-74
2023/08/26 07:56:24;;;;;;;8.68;6.40;;;27.70;69.40;;;;;;5074860;28;20024;-74
2023/08/26 07:58:50;;;;;;;10.45;6.75;;;27.70;68.90;;;;;;5074743;28;20060;-74
2023/08/26 08:01:16;;;;;;;9.05;6.80;;;27.80;69.10;;;;;;5072179;28;20056;-74
2023/08/26 08:03:42;;;;;;;15.15;6.57;;;27.90;68.70;;;;;;5074106;28;20056;-73
2023/08/26 08:06:08;;;;;;;14.40;6.28;;;27.90;68.60;;;;;;5074082;28;20075;-74
2023/08/26 08:08:33;;;;;;;14.88;6.85;;;28.00;68.40;;;;;;5074299;28;20047;-74
2023/08/26 08:10:59;;;;;;;14.38;6.43;;;28.00;68.20;;;;;;5074112;28;20380;-74
2023/08/26 08:13:25;;;;;;;12.88;6.60;;;28.00;67.70;;;;;;5074158;28;20047;-74
2023/08/26 08:15:51;;;;;;;12.88;7.22;;;28.10;67.60;;;;;;5073209;28;20161;-74
2023/08/26 08:18:16;;;;;;;9.43;6.38;;;28.10;67.50;;;;;;5074569;28;20020;-75
2023/08/26 08:20:42;;;;;;;8.15;6.57;;;28.20;67.40;;;;;;5072289;28;20032;-74
2023/08/26 08:23:08;;;;;;;11.35;6.18;;;28.20;67.00;;;;;;5072757;28;20039;-74
2023/08/26 08:25:34;;;;;;;10.18;6.53;;;28.20;66.60;;;;;;5073949;28;20503;-75
2023/08/26 08:28:02;;;;;;;7.47;6.53;;;28.30;65.80;;;;;;5072507;28;20025;-73
2023/08/26 08:30:27;;;;;;;16.77;7.18;;;28.40;65.10;;;;;;5073945;28;20074;-74
2023/08/26 08:32:53;;;;;;;10.82;6.68;;;28.40;64.30;;;;;;5072932;28;20029;-74
2023/08/26 08:35:19;;;;;;;16.33;7.53;;;28.50;64.50;;;;;;5071974;28;20025;-74
2023/08/26 08:37:45;;;;;;;9.57;6.88;;;28.50;65.40;;;;;;5073616;28;20091;-75
2023/08/26 08:40:11;;;;;;;10.20;7.35;;;28.60;65.40;;;;;;5072540;28;20056;-76
2023/08/26 08:42:42;;;;;;;11.50;7.13;;;28.70;65.40;;;;;;5073947;28;20020;-75
2023/08/26 08:45:09;;;;;;;11.18;7.43;;;28.70;65.40;;;;;;5072821;28;20016;-74
2023/08/26 08:47:35;;;;;;;12.73;7.65;;;28.80;65.60;;;;;;5071429;28;20021;-74
2023/08/26 08:50:01;;;;;;;13.00;8.80;;;28.90;66.00;;;;;;5071749;28;20031;-74
2023/08/26 08:52:28;;;;;;;13.38;8.02;;;28.90;65.80;;;;;;5071825;28;20020;-75
2023/08/26 08:54:54;;;;;;;16.52;8.13;;;29.00;65.20;;;;;;5071629;28;20030;-74
2023/08/26 08:57:26;;;;;;;11.80;8.38;;;29.00;64.80;;;;;;5070593;28;20066;-75
2023/08/26 08:59:54;;;;;;;12.25;7.82;;;29.00;65.20;;;;;;5072032;28;20040;-74
2023/08/26 09:02:20;;;;;;;9.82;7.72;;;29.10;65.60;;;;;;5073398;28;20506;-74
2023/08/26 09:04:46;;;;;;;11.40;8.10;;;29.10;65.00;;;;;;5073533;28;20107;-74
2023/08/26 09:07:13;;;;;;;12.45;7.80;;;29.20;65.30;;;;;;5073668;28;20100;-75
2023/08/26 09:09:39;;;;;;;12.13;8.00;;;29.20;65.40;;;;;;5073611;28;20082;-74
2023/08/26 09:12:06;;;;;;;17.83;8.90;;;29.30;64.60;;;;;;5073485;28;20025;-74
2023/08/26 09:14:33;;;;;;;19.25;8.93;;;29.30;65.00;;;;;;5073403;28;20075;-75
2023/08/26 09:17:17;;;;;;;19.25;8.65;;;29.40;65.20;;;;;;5073327;28;20051;-74
2023/08/26 09:19:53;;;;;;;14.00;8.10;;;29.40;66.20;;;;;;5073479;28;20119;-74
2023/08/26 09:22:20;;;;;;;14.82;8.23;;;29.50;66.00;;;;;;5073517;28;20031;-75
2023/08/26 09:24:46;;;;;;;9.13;7.50;;;29.60;65.60;;;;;;5073272;28;20025;-74
2023/08/26 09:27:15;;;;;;;10.98;8.60;;;29.60;64.80;;;;;;5072127;28;20024;-74
2023/08/26 09:29:41;;;;;;;12.57;8.20;;;29.60;65.50;;;;;;5073019;28;20025;-73
2023/08/26 09:32:07;;;;;;;13.05;7.80;;;29.70;65.40;;;;;;5070409;28;20436;-75
2023/08/26 09:34:33;;;;;;;10.93;7.70;;;29.70;64.60;;;;;;5069694;28;20024;-73
2023/08/26 09:36:59;;;;;;;12.13;8.20;;;29.80;64.10;;;;;;5070114;28;20123;-73
2023/08/26 09:39:26;;;;;;;14.38;8.32;;;29.90;63.70;;;;;;5069915;28;20531;-74
2023/08/26 09:41:55;;;;;;;12.55;8.10;;;29.90;63.80;;;;;;5073017;28;20025;-75
2023/08/26 09:44:23;;;;;;;13.40;8.18;;;30.00;63.50;;;;;;5073089;28;20109;-75
2023/08/26 09:46:49;;;;;;;12.43;7.88;;;30.00;63.00;;;;;;5073065;28;20024;-75
2023/08/26 09:49:18;;;;;;;15.75;8.60;;;30.00;62.30;;;;;;5073240;28;20032;-75
2023/08/26 09:51:48;;;;;;;14.15;7.47;;;30.10;63.60;;;;;;5072658;28;20082;-74
2023/08/26 09:54:19;;;;;;;10.18;8.60;;;30.20;62.00;;;;;;5072721;28;20028;-74
2023/08/26 09:56:46;;;;;;;10.65;7.60;;;30.20;62.20;;;;;;5072776;28;20036;-74
2023/08/26 09:59:12;;;;;;;13.32;7.30;;;30.20;60.90;;;;;;5071283;28;20361;-74
2023/08/26 10:01:39;;;;;;;9.43;7.47;;;30.30;60.80;;;;;;5072570;28;20029;-74
2023/08/26 10:04:09;;;;;;;10.95;8.13;;;30.30;60.80;;;;;;5072622;28;20059;-74
2023/08/26 10:06:55;;;;;;;14.90;8.02;;;30.40;61.40;;;;;;5072640;28;20058;-74
2023/08/26 10:09:43;;;;;;;11.63;7.68;;;30.50;61.80;;;;;;5072720;28;20381;-74
2023/08/26 10:12:30;;;;;;;11.20;7.88;;;30.60;62.00;;;;;;5054645;28;20033;-74
2023/08/26 10:15:00;;;;;;;10.07;7.82;;;30.60;60.60;;;;;;5072792;28;20029;-74
2023/08/26 10:17:30;;;;;;;10.83;7.87;;;30.60;60.00;;;;;;5072547;28;20025;-76
2023/08/26 10:19:57;;;;;;;8.30;7.43;;;30.70;60.40;;;;;;5071995;28;20033;-74
2023/08/26 10:22:24;;;;;;;13.60;7.88;;;30.70;60.40;;;;;;5072222;28;20469;-74
2023/08/26 10:24:50;;;;;;;10.32;7.30;;;30.80;60.70;;;;;;5072346;28;20028;-74
2023/08/26 10:27:17;;;;;;;12.45;7.15;;;30.80;60.20;;;;;;5072340;28;20396;-73
2023/08/26 10:29:43;;;;;;;7.75;7.07;;;30.90;59.60;;;;;;5072622;28;20115;-75
2023/08/26 10:32:23;;;;;;;12.75;7.40;;;31.00;59.90;;;;;;5072599;28;20381;-74
2023/08/26 10:35:12;;;;;;;9.80;7.82;;;31.00;60.10;;;;;;5072105;28;20017;-74
2023/08/26 10:37:38;;;;;;;11.40;7.38;;;31.00;59.50;;;;;;5071180;28;20024;-74
2023/08/26 10:40:12;;;;;;;11.27;7.65;;;31.00;59.90;;;;;;5072167;28;20056;-73
2023/08/26 10:42:47;;;;;;;9.50;7.60;;;31.10;59.30;;;;;;5070828;28;20115;-74
2023/08/26 10:45:14;;;;;;;12.85;7.70;;;31.10;59.20;;;;;;5072084;28;20028;-73
2023/08/26 10:47:50;;;;;;;10.07;7.63;;;31.10;59.00;;;;;;5074194;28;20029;-75
2023/08/26 10:50:20;;;;;;;16.08;7.10;;;31.20;58.70;;;;;;5076073;28;20505;-74
2023/08/26 10:53:13;;;;;;;7.80;6.80;;;31.30;58.90;;;;;;5076236;28;20033;-74
2023/08/26 10:55:43;;;;;;;9.80;6.93;;;31.30;57.30;;;;;;5076511;28;20544;-71
2023/08/26 10:58:16;;;;;;;10.52;7.13;;;31.30;57.40;;;;;;5074632;28;20606;-75
2023/08/26 11:00:45;;;;;;;11.57;7.80;;;31.40;58.10;;;;;;5075476;28;20029;-74
2023/08/26 11:03:11;;;;;;;9.80;7.57;;;31.40;58.70;;;;;;5075449;28;20031;-75
2023/08/26 11:05:40;;;;;;;8.77;6.93;;;31.40;59.40;;;;;;5075655;28;20100;-74
2023/08/26 11:08:06;;;;;;;9.43;7.55;;;31.50;58.60;;;;;;5075775;28;20046;-75
2023/08/26 11:10:34;;;;;;;14.38;7.57;;;31.50;58.60;;;;;;5075750;28;20472;-75
2023/08/26 11:13:00;;;;;;;9.02;7.53;;;31.50;59.20;;;;;;5074344;28;20138;-74
2023/08/26 11:15:40;;;;;;;9.55;7.75;;;31.50;59.20;;;;;;5074134;28;20024;-73
2023/08/26 11:18:07;;;;;;;9.85;7.60;;;31.60;59.00;;;;;;5074192;28;20035;-76
2023/08/26 11:20:34;;;;;;;11.18;7.95;;;31.60;59.50;;;;;;5075682;28;20032;-73
2023/08/26 11:23:04;;;;;;;10.68;7.47;;;31.70;59.40;;;;;;5075547;28;20112;-73
2023/08/26 11:25:30;;;;;;;8.00;7.18;;;31.70;59.30;;;;;;5072192;28;20028;-73
2023/08/26 11:28:05;;;;;;;9.93;7.20;;;31.70;58.80;;;;;;5052507;28;20025;-72
2023/08/26 11:30:36;;;;;;;11.98;7.65;;;31.70;59.10;;;;;;5052532;28;20492;-74
2023/08/26 11:33:09;;;;;;;9.98;7.72;;;31.80;58.60;;;;;;5053591;28;20385;-75
2023/08/26 11:35:39;;;;;;;14.43;8.48;;;31.80;59.80;;;;;;5055154;28;20044;-75
2023/08/26 11:38:07;;;;;;;13.48;8.00;;;31.80;59.60;;;;;;5048463;28;20030;-74
2023/08/26 11:40:33;;;;;;;8.82;7.93;;;31.80;59.80;;;;;;5034413;28;20067;-74
2023/08/26 11:42:58;;;;;;;9.23;7.05;;;31.90;59.90;;;;;;5052387;28;20112;-74
2023/08/26 11:45:25;;;;;;;9.32;7.82;;;31.90;60.00;;;;;;5053562;28;20037;-74
2023/08/26 11:47:53;;;;;;;8.85;7.93;;;31.90;60.20;;;;;;5054126;28;20025;-74
2023/08/26 11:50:19;;;;;;;9.45;7.93;;;31.90;60.50;;;;;;5054608;28;20539;-75
2023/08/26 11:52:45;;;;;;;11.90;8.27;;;31.90;60.30;;;;;;5054738;28;20013;-75
2023/08/26 11:55:11;;;;;;;10.63;8.30;;;32.00;60.60;;;;;;5054499;28;20036;-74
2023/08/26 11:57:40;;;;;;;10.77;8.50;;;32.00;60.30;;;;;;5053357;28;20021;-74
2023/08/26 12:00:06;;;;;;;10.10;8.18;;;32.00;60.90;;;;;;5054604;28;20037;-74
2023/08/26 12:02:32;;;;;;;10.40;8.38;;;32.10;61.00;;;;;;5054490;28;20078;-75
2023/08/26 12:04:58;;;;;;;9.98;8.90;;;32.10;61.50;;;;;;5054463;28;20533;-76
2023/08/26 12:07:25;;;;;;;9.55;8.25;;;32.10;61.30;;;;;;5054468;28;20021;-75
2023/08/26 12:09:52;;;;;;;16.13;9.32;;;32.10;61.70;;;;;;5054084;28;20162;-76
2023/08/26 12:12:21;;;;;;;10.02;9.02;;;32.10;61.80;;;;;;5054647;28;20028;-76
2023/08/26 12:14:48;;;;;;;11.52;8.68;;;32.10;62.10;;;;;;5054574;28;20024;-76
2023/08/26 12:17:14;;;;;;;9.70;8.30;;;32.20;62.70;;;;;;5054128;28;20026;-76
2023/08/26 12:19:41;;;;;;;10.35;8.18;;;32.20;62.60;;;;;;5054280;28;20036;-76
2023/08/26 12:22:08;;;;;;;11.70;8.10;;;32.20;62.10;;;;;;5053675;28;20384;-75
2023/08/26 12:24:38;;;;;;;10.52;7.55;;;32.20;61.40;;;;;;5051559;28;20098;-75
2023/08/26 12:27:11;;;;;;;11.25;8.13;;;32.20;61.30;;;;;;5051257;28;20040;-75
2023/08/26 12:29:38;;;;;;;11.88;7.25;;;32.20;60.80;;;;;;5052678;28;20083;-75
2023/08/26 12:32:04;;;;;;;13.02;8.07;;;32.20;61.50;;;;;;5054001;28;20029;-75
2023/08/26 12:34:31;;;;;;;11.65;7.50;;;32.20;61.00;;;;;;5054457;28;20017;-75
2023/08/26 12:36:57;;;;;;;10.13;7.22;;;32.30;60.20;;;;;;5053916;28;20032;-75
2023/08/26 12:39:26;;;;;;;11.30;7.78;;;32.30;59.80;;;;;;5053667;28;20057;-75